createdAt,value
2015-10-27T00:19:19.845Z,1.0
2015-10-27T00:20:54.010Z,1.0
2015-10-27T00:23:02.391Z,9
2015-10-27T00:24:55.021Z,9
2015-10-27T00:25:01.880Z,9
2015-10-27T00:26:02.039Z,9
2015-10-27T00:27:16.699Z,9
2015-10-27T00:28:02.091Z,9
2015-10-27T00:29:02.329Z,9
2015-10-27T00:30:01.457Z,9
2015-10-27T00:31:01.694Z,9
2015-10-27T00:32:02.102Z,9
2015-10-27T00:33:02.152Z,9
2015-10-27T00:34:02.280Z,9
2015-10-27T00:35:01.501Z,9
2015-10-27T00:36:01.643Z,9
2015-10-27T00:37:01.834Z,9
2015-10-27T00:38:02.071Z,9
2015-10-27T00:39:01.871Z,9
2015-10-27T00:40:01.984Z,9
2015-10-27T00:41:02.205Z,9
2015-10-27T00:42:02.301Z,9
2015-10-27T00:45:01.607Z,9
2015-10-27T00:46:01.858Z,9
2015-10-27T00:47:02.142Z,9
2015-10-27T00:48:02.317Z,1
2015-10-27T00:49:01.476Z,1
2015-10-27T00:50:01.650Z,1
2015-10-27T00:51:01.841Z,1
2015-10-27T00:52:01.937Z,1
2015-10-27T00:53:02.144Z,1
2015-10-27T00:54:02.271Z,1
2015-10-27T00:55:01.430Z,1
2015-10-27T00:56:00.683Z,1
2015-10-27T00:57:02.076Z,1
2015-10-27T00:58:02.235Z,1
2015-10-27T00:59:01.441Z,1
2015-10-27T01:00:01.631Z,1
2015-10-27T01:01:01.744Z,1
2015-10-27T01:02:01.901Z,1
2015-10-27T01:03:02.138Z,1
2015-10-27T01:04:01.485Z,1
2015-10-27T01:05:01.691Z,1
2015-10-27T01:06:01.772Z,1
2015-10-27T01:07:01.431Z,1
2015-10-27T01:08:01.543Z,1
2015-10-27T01:09:02.077Z,1
2015-10-27T01:10:02.205Z,1
2015-10-27T01:11:01.395Z,1
2015-10-27T01:12:01.554Z,1
2015-10-27T01:13:01.712Z,1
2015-10-27T01:14:01.481Z,1
2015-10-27T01:15:01.639Z,1
2015-10-27T01:16:01.814Z,1
2015-10-27T01:17:01.973Z,1
2015-10-27T01:18:01.976Z,1
2015-10-27T01:19:02.369Z,1
2015-10-27T01:20:01.544Z,1
2015-10-27T01:21:01.531Z,1
2015-10-27T01:22:01.893Z,1
2015-10-27T01:23:05.942Z,1
2015-10-27T01:24:01.492Z,1
2015-10-27T01:25:01.667Z,1
2015-10-27T01:26:01.858Z,1
2015-10-27T01:27:02.047Z,1
2015-10-27T01:28:01.972Z,1
2015-10-27T01:29:02.177Z,1
2015-10-27T01:30:01.430Z,1
2015-10-27T01:31:02.370Z,1
2015-10-27T01:32:01.826Z,1
2015-10-27T01:33:02.001Z,1
2015-10-27T01:34:02.129Z,1
2015-10-27T01:35:02.287Z,1
2015-10-27T01:36:01.524Z,1
2015-10-27T01:37:01.793Z,1
2015-10-27T01:38:01.827Z,1
2015-10-27T01:39:01.985Z,1
2015-10-27T01:40:02.113Z,1
2015-10-27T01:41:01.412Z,1
2015-10-27T01:42:01.587Z,1
2015-10-27T01:43:01.762Z,1
2015-10-27T01:44:01.890Z,1
2015-10-27T01:45:02.111Z,1
2015-10-27T01:46:02.223Z,1
2015-10-27T01:47:01.398Z,1
2015-10-27T01:48:01.588Z,1
2015-10-27T01:49:02.340Z,1
2015-10-27T01:50:01.453Z,1
2015-10-27T01:51:01.737Z,1
2015-10-27T01:52:01.865Z,1
2015-10-27T01:53:02.023Z,1
2015-10-27T01:54:02.323Z,1
2015-10-27T01:55:01.482Z,1
2015-10-27T01:56:01.625Z,1
2015-10-27T01:57:01.815Z,1
2015-10-27T01:58:01.974Z,1
2015-10-27T01:59:02.149Z,1
2015-10-27T02:00:02.324Z,1
2015-10-27T02:02:32.829Z,1
2015-10-27T02:03:01.425Z,1
2015-10-27T02:04:01.928Z,1
2015-10-27T02:05:02.133Z,1
2015-10-27T02:06:01.402Z,1
2015-10-27T02:07:01.577Z,1
2015-10-27T02:08:01.486Z,1
2015-10-27T02:09:02.019Z,1
2015-10-27T02:10:02.147Z,1
2015-10-27T02:11:02.322Z,1
2015-10-27T02:12:01.449Z,1
2015-10-27T02:13:01.390Z,1
2015-10-27T02:14:01.564Z,1
2015-10-27T02:15:01.707Z,1
2015-10-27T02:16:02.070Z,1
2015-10-27T02:17:03.354Z,1
2015-10-27T02:18:01.762Z,1
2015-10-27T02:19:01.921Z,1
2015-10-27T02:20:02.096Z,1
2015-10-27T02:21:02.271Z,1
2015-10-27T02:22:02.367Z,1
2015-10-27T02:23:01.525Z,1
2015-10-27T02:24:01.684Z,1
2015-10-27T02:25:01.828Z,1
2015-10-27T02:26:01.049Z,1
2015-10-27T02:27:02.255Z,1
2015-10-27T02:28:02.352Z,1
2015-10-27T02:29:01.808Z,1
2015-10-27T02:30:02.263Z,1
2015-10-27T02:31:02.219Z,1
2015-10-27T02:32:02.425Z,1
2015-10-27T02:33:01.444Z,1
2015-10-27T02:34:01.649Z,1
2015-10-27T02:35:01.902Z,1
2015-10-27T02:36:02.202Z,1
2015-10-27T02:37:01.392Z,1
2015-10-27T02:38:01.738Z,1
2015-10-27T02:39:01.834Z,1
2015-10-27T02:40:02.040Z,1
2015-10-27T02:41:01.715Z,1
2015-10-27T02:42:01.623Z,1
2015-10-27T02:43:01.767Z,1
2015-10-27T02:44:01.895Z,1
2015-10-27T02:45:02.070Z,1
2015-10-27T02:46:02.243Z,1
2015-10-27T02:47:02.419Z,1
2015-10-27T02:48:02.328Z,1
2015-10-27T02:49:01.549Z,1
2015-10-27T02:50:01.723Z,1
2015-10-27T02:51:01.851Z,1
2015-10-27T02:52:01.978Z,1
2015-10-27T02:53:02.122Z,1
2015-10-27T02:54:02.297Z,1
2015-10-27T02:55:02.206Z,1
2015-10-27T02:56:02.333Z,1
2015-10-27T02:57:01.492Z,1
2015-10-27T02:58:01.620Z,1
2015-10-27T02:59:01.795Z,1
2015-10-27T03:00:01.906Z,1
2015-10-27T03:01:02.128Z,1
2015-10-27T03:02:02.241Z,1
2015-10-27T03:03:01.744Z,1
2015-10-27T03:04:01.824Z,1
2015-10-27T03:05:01.999Z,1
2015-10-27T03:06:02.016Z,1
2015-10-27T03:07:02.238Z,1
2015-10-27T03:08:02.349Z,1
2015-10-27T03:09:01.493Z,1
2015-10-27T03:10:02.105Z,1
2015-10-27T03:11:02.249Z,1
2015-10-27T03:12:01.392Z,1
2015-10-27T03:13:01.551Z,1
2015-10-27T03:14:01.694Z,1
2015-10-27T03:15:01.854Z,1
2015-10-27T03:16:03.090Z,1
2015-10-27T03:17:02.015Z,1
2015-10-27T03:18:02.315Z,1
2015-10-27T03:19:04.115Z,1
2015-10-27T03:20:02.367Z,1
2015-10-27T03:21:03.792Z,1
2015-10-27T03:22:04.216Z,1
2015-10-27T03:23:04.781Z,1
2015-10-27T03:24:03.533Z,1
2015-10-27T03:25:02.473Z,1
2015-10-27T03:26:04.617Z,1
2015-10-27T03:27:03.214Z,1
2015-10-27T03:28:02.295Z,1
2015-10-27T03:29:06.953Z,1
2015-10-27T03:30:03.394Z,1
2015-10-27T03:31:01.928Z,1
2015-10-27T03:32:02.493Z,1
2015-10-27T03:33:09.166Z,1
2015-10-27T03:34:07.294Z,1
2015-10-27T03:35:02.750Z,1
2015-10-27T03:36:02.472Z,1
2015-10-27T03:37:01.521Z,1
2015-10-27T03:38:02.102Z,1
2015-10-27T03:39:02.340Z,1
2015-10-27T03:40:01.452Z,1
2015-10-27T03:41:03.923Z,1
2015-10-27T03:42:08.988Z,1
2015-10-27T03:43:02.116Z,1
2015-10-27T03:44:02.338Z,1
2015-10-27T03:45:01.762Z,1
2015-10-27T03:46:02.812Z,1
2015-10-27T03:47:07.096Z,1
2015-10-27T03:48:02.036Z,1
2015-10-27T03:49:02.209Z,1
2015-10-27T03:50:02.384Z,1
2015-10-27T03:51:01.903Z,1
2015-10-27T03:52:04.625Z,1
2015-10-27T03:53:02.080Z,1
2015-10-27T03:54:07.739Z,1
2015-10-27T03:55:04.258Z,1
2015-10-27T03:56:07.682Z,1
2015-10-27T03:57:02.934Z,1
2015-10-27T03:58:12.782Z,1
2015-10-27T03:59:04.034Z,1
2015-10-27T04:00:04.662Z,1
2015-10-27T04:01:01.461Z,1
2015-10-27T04:02:03.042Z,1
2015-10-27T04:03:01.888Z,1
2015-10-27T04:04:02.094Z,1
2015-10-27T04:05:04.566Z,1
2015-10-27T04:06:02.038Z,1
2015-10-27T04:07:02.211Z,1
2015-10-27T04:08:02.402Z,1
2015-10-27T04:09:02.077Z,1
2015-10-27T04:10:02.424Z,1
2015-10-27T04:11:01.957Z,1
2015-10-27T04:12:01.663Z,1
2015-10-27T04:13:01.852Z,1
2015-10-27T04:14:02.044Z,1
2015-10-27T04:15:02.218Z,1
2015-10-27T04:16:02.407Z,1
2015-10-27T04:17:01.473Z,1
2015-10-27T04:18:01.632Z,1
2015-10-27T04:19:01.806Z,1
2015-10-27T04:20:01.965Z,1
2015-10-27T04:21:02.156Z,1
2015-10-27T04:22:02.393Z,1
2015-10-27T04:23:01.567Z,1
2015-10-27T04:24:01.773Z,1
2015-10-27T04:25:01.979Z,1
2015-10-27T04:26:02.154Z,1
2015-10-27T04:27:02.328Z,1
2015-10-27T04:28:01.675Z,1
2015-10-27T04:29:01.818Z,1
2015-10-27T04:30:02.337Z,1
2015-10-27T04:31:02.355Z,1
2015-10-27T04:32:01.639Z,1
2015-10-27T04:33:01.625Z,1
2015-10-27T04:34:01.800Z,1
2015-10-27T04:35:01.943Z,1
2015-10-27T04:36:02.102Z,1
2015-10-27T04:37:02.355Z,1
2015-10-27T04:38:02.686Z,1
2015-10-27T04:39:02.361Z,1
2015-10-27T04:40:01.519Z,1
2015-10-27T04:41:01.694Z,1
2015-10-27T04:42:01.760Z,1
2015-10-27T04:43:01.933Z,1
2015-10-27T04:44:02.092Z,1
2015-10-27T04:45:02.267Z,1
2015-10-27T04:46:01.441Z,1
2015-10-27T04:47:01.585Z,1
2015-10-27T04:48:02.009Z,1
2015-10-27T04:49:02.231Z,1
2015-10-27T04:50:02.515Z,1
2015-10-27T04:51:01.534Z,1
2015-10-27T04:52:01.723Z,1
2015-10-27T04:53:01.898Z,1
2015-10-27T04:54:02.026Z,1
2015-10-27T04:55:02.247Z,1
2015-10-27T04:56:02.422Z,1
2015-10-27T04:57:01.565Z,1
2015-10-27T04:58:01.506Z,1
2015-10-27T04:59:01.696Z,1
2015-10-27T05:00:01.947Z,1
2015-10-27T05:01:01.513Z,1
2015-10-27T05:02:01.641Z,1
2015-10-27T05:03:01.831Z,1
2015-10-27T05:04:01.943Z,1
2015-10-27T05:05:02.133Z,1
2015-10-27T05:06:01.745Z,1
2015-10-27T05:07:01.889Z,1
2015-10-27T05:08:02.110Z,1
2015-10-27T05:09:02.285Z,1
2015-10-27T05:10:01.866Z,1
2015-10-27T05:11:02.009Z,1
2015-10-27T05:12:02.168Z,1
2015-10-27T05:13:02.296Z,1
2015-10-27T05:14:01.486Z,1
2015-10-27T05:15:01.692Z,1
2015-10-27T05:16:01.975Z,1
2015-10-27T05:17:02.149Z,1
2015-10-27T05:18:02.402Z,1
2015-10-27T05:19:01.890Z,1
2015-10-27T05:20:02.079Z,1
2015-10-27T05:21:01.598Z,1
2015-10-27T05:22:01.773Z,1
2015-10-27T05:23:01.901Z,1
2015-10-27T05:24:02.278Z,1
2015-10-27T05:25:02.422Z,1
2015-10-27T05:26:01.564Z,1
2015-10-27T05:27:01.661Z,1
2015-10-27T05:28:01.789Z,1
2015-10-27T05:29:01.714Z,1
2015-10-27T05:30:01.920Z,1
2015-10-27T05:31:02.109Z,1
2015-10-27T05:32:02.394Z,1
2015-10-27T05:33:02.209Z,1
2015-10-27T05:34:02.367Z,1
2015-10-27T05:35:01.823Z,1
2015-10-27T05:36:01.967Z,1
2015-10-27T05:37:02.158Z,1
2015-10-27T05:38:02.081Z,1
2015-10-27T05:39:02.225Z,1
2015-10-27T05:40:02.369Z,1
2015-10-27T05:41:01.653Z,1
2015-10-27T05:42:01.655Z,1
2015-10-27T05:43:01.798Z,1
2015-10-27T05:44:01.926Z,1
2015-10-27T05:45:02.116Z,1
2015-10-27T05:46:01.774Z,1
2015-10-27T05:47:01.965Z,1
2015-10-27T05:48:02.358Z,1
2015-10-27T05:49:01.502Z,1
2015-10-27T05:50:01.660Z,1
2015-10-27T05:51:01.804Z,1
2015-10-27T05:52:01.963Z,1
2015-10-27T05:53:02.138Z,1
2015-10-27T05:54:02.296Z,1
2015-10-27T05:55:01.534Z,1
2015-10-27T05:56:01.709Z,1
2015-10-27T05:57:01.602Z,1
2015-10-27T05:58:01.745Z,1
2015-10-27T05:59:01.919Z,1
2015-10-27T06:00:02.109Z,1
2015-10-27T06:01:02.159Z,1
2015-10-27T06:02:01.239Z,1
2015-10-27T06:03:02.414Z,1
2015-10-27T06:04:01.620Z,1
2015-10-27T06:05:01.779Z,1
2015-10-27T06:06:02.172Z,1
2015-10-27T06:07:02.331Z,1
2015-10-27T06:08:01.616Z,1
2015-10-27T06:09:02.040Z,1
2015-10-27T06:10:02.199Z,1
2015-10-27T06:11:02.374Z,1
2015-10-27T06:12:01.533Z,1
2015-10-27T06:13:01.770Z,1
2015-10-27T06:14:01.428Z,1
2015-10-27T06:15:01.588Z,1
2015-10-27T06:16:01.512Z,1
2015-10-27T06:17:02.358Z,1
2015-10-27T06:18:01.485Z,1
2015-10-27T06:19:02.444Z,1
2015-10-27T06:20:01.627Z,1
2015-10-27T06:21:01.572Z,1
2015-10-27T06:22:01.810Z,1
2015-10-27T06:23:02.610Z,1
2015-10-27T06:24:00.893Z,1
2015-10-27T06:25:02.145Z,1
2015-10-27T06:26:01.445Z,1
2015-10-27T06:27:01.635Z,1
2015-10-27T06:28:01.840Z,1
2015-10-27T06:29:02.187Z,1
2015-10-27T06:30:02.300Z,1
2015-10-27T06:31:03.068Z,1
2015-10-27T06:32:01.773Z,1
2015-10-27T06:33:02.214Z,1
2015-10-27T06:34:02.436Z,1
2015-10-27T06:35:01.610Z,1
2015-10-27T06:36:02.206Z,1
2015-10-27T06:37:02.037Z,1
2015-10-27T06:38:01.915Z,1
2015-10-27T06:39:02.090Z,1
2015-10-27T06:40:02.280Z,1
2015-10-27T06:41:01.610Z,1
2015-10-27T06:42:01.863Z,1
2015-10-27T06:43:02.022Z,1
2015-10-27T06:44:02.305Z,1
2015-10-27T06:45:01.511Z,1
2015-10-27T06:46:01.733Z,1
2015-10-27T06:47:01.767Z,1
2015-10-27T06:48:01.629Z,1
2015-10-27T06:49:01.741Z,1
2015-10-27T06:50:01.962Z,1
2015-10-27T06:51:02.107Z,1
2015-10-27T06:52:02.312Z,1
2015-10-27T06:53:01.424Z,1
2015-10-27T06:54:02.301Z,1
2015-10-27T06:55:01.446Z,1
2015-10-27T06:56:01.620Z,1
2015-10-27T06:57:01.888Z,1
2015-10-27T06:58:02.046Z,1
2015-10-27T06:59:02.206Z,1
2015-10-27T07:00:02.396Z,1
2015-10-27T07:01:01.712Z,1
2015-10-27T07:02:01.854Z,1
2015-10-27T07:03:02.029Z,1
2015-10-27T07:04:01.875Z,1
2015-10-27T07:05:02.003Z,1
2015-10-27T07:06:02.067Z,1
2015-10-27T07:07:02.180Z,1
2015-10-27T07:08:02.355Z,1
2015-10-27T07:09:01.498Z,1
2015-10-27T07:10:01.672Z,1
2015-10-27T07:11:01.895Z,1
2015-10-27T07:12:02.084Z,1
2015-10-27T07:13:02.212Z,1
2015-10-27T07:14:02.933Z,1
2015-10-27T07:15:02.211Z,1
2015-10-27T07:16:01.690Z,1
2015-10-27T07:17:01.778Z,1
2015-10-27T07:18:01.958Z,1
2015-10-27T07:19:02.108Z,1
2015-10-27T07:20:02.432Z,1
2015-10-27T07:21:02.291Z,1
2015-10-27T07:22:02.150Z,1
2015-10-27T07:23:01.868Z,1
2015-10-27T07:24:02.070Z,1
2015-10-27T07:25:02.227Z,1
2015-10-27T07:26:02.026Z,1
2015-10-27T07:27:01.918Z,1
2015-10-27T07:28:01.871Z,1
2015-10-27T07:29:02.060Z,1
2015-10-27T07:30:02.282Z,1
2015-10-27T07:31:01.938Z,1
2015-10-27T07:32:02.256Z,1
2015-10-27T07:33:01.709Z,1
2015-10-27T07:34:01.931Z,1
2015-10-27T07:35:02.119Z,1
2015-10-27T07:36:02.357Z,1
2015-10-27T07:37:00.438Z,1
2015-10-27T07:38:01.613Z,1
2015-10-27T07:39:01.818Z,1
2015-10-27T07:40:02.118Z,1
2015-10-27T07:41:02.214Z,1
2015-10-27T07:42:01.530Z,1
2015-10-27T07:43:02.313Z,1
2015-10-27T07:44:01.504Z,1
2015-10-27T07:45:01.741Z,1
2015-10-27T07:46:01.946Z,1
2015-10-27T07:47:02.152Z,1
2015-10-27T07:48:01.998Z,1
2015-10-27T07:49:02.147Z,1
2015-10-27T07:50:02.338Z,1
2015-10-27T07:51:01.466Z,1
2015-10-27T07:52:01.610Z,1
2015-10-27T07:53:01.549Z,1
2015-10-27T07:54:01.754Z,1
2015-10-27T07:55:01.898Z,1
2015-10-27T07:56:02.151Z,1
2015-10-27T07:57:02.293Z,26
2015-10-27T07:58:01.453Z,25
2015-10-27T07:59:01.628Z,29
2015-10-27T08:00:03.304Z,848
2015-10-27T08:01:01.945Z,852
2015-10-27T08:02:02.292Z,855
2015-10-27T08:03:01.451Z,854
2015-10-27T08:04:02.282Z,857
2015-10-27T08:05:01.675Z,854
2015-10-27T08:06:01.381Z,855
2015-10-27T08:07:02.165Z,856
2015-10-27T08:08:02.496Z,856
2015-10-27T08:09:01.561Z,861
2015-10-27T08:10:01.751Z,864
2015-10-27T08:11:02.113Z,863
2015-10-27T08:12:02.303Z,862
2015-10-27T08:13:01.399Z,864
2015-10-27T08:14:01.606Z,866
2015-10-27T08:15:01.967Z,865
2015-10-27T08:16:02.377Z,864
2015-10-27T08:17:01.505Z,869
2015-10-27T08:18:01.930Z,872
2015-10-27T08:19:01.885Z,872
2015-10-27T08:20:02.388Z,873
2015-10-27T08:21:01.437Z,874
2015-10-27T08:22:01.690Z,876
2015-10-27T08:23:01.942Z,877
2015-10-27T08:24:02.116Z,874
2015-10-27T08:25:02.244Z,873
2015-10-27T08:26:01.451Z,877
2015-10-27T08:27:01.671Z,876
2015-10-27T08:28:01.784Z,876
2015-10-27T08:29:01.896Z,877
2015-10-27T08:30:02.087Z,878
2015-10-27T08:31:02.010Z,881
2015-10-27T08:32:02.435Z,883
2015-10-27T08:33:01.626Z,887
2015-10-27T08:34:01.973Z,888
2015-10-27T08:35:01.865Z,889
2015-10-27T08:36:01.978Z,884
2015-10-27T08:37:02.136Z,887
2015-10-27T08:38:02.311Z,887
2015-10-27T08:39:01.392Z,890
2015-10-27T08:40:01.753Z,891
2015-10-27T08:41:03.272Z,893
2015-10-27T08:42:02.165Z,893
2015-10-27T08:43:02.606Z,897
2015-10-27T08:44:01.467Z,895
2015-10-27T08:45:01.736Z,897
2015-10-27T08:46:01.551Z,893
2015-10-27T08:47:02.508Z,898
2015-10-27T08:48:02.196Z,897
2015-10-27T08:49:02.262Z,898
2015-10-27T08:50:01.390Z,897
2015-10-27T08:51:01.611Z,899
2015-10-27T08:52:01.692Z,905
2015-10-27T08:53:01.882Z,901
2015-10-27T08:54:02.416Z,906
2015-10-27T08:55:02.341Z,907
2015-10-27T08:56:01.859Z,904
2015-10-27T08:57:01.955Z,25
2015-10-27T08:58:02.428Z,30
2015-10-27T08:59:02.180Z,24
2015-10-27T09:00:02.589Z,852
2015-10-27T09:01:01.577Z,851
2015-10-27T09:02:02.063Z,852
2015-10-27T09:03:02.129Z,857
2015-10-27T09:04:02.349Z,859
2015-10-27T09:05:01.571Z,857
2015-10-27T09:06:02.184Z,861
2015-10-27T09:07:01.421Z,860
2015-10-27T09:08:01.642Z,860
2015-10-27T09:09:01.988Z,863
2015-10-27T09:10:02.210Z,860
2015-10-27T09:11:01.463Z,865
2015-10-27T09:12:01.621Z,867
2015-10-27T09:13:01.860Z,866
2015-10-27T09:14:02.080Z,864
2015-10-27T09:15:01.833Z,865
2015-10-27T09:16:02.117Z,872
2015-10-27T09:17:02.260Z,869
2015-10-27T09:18:01.419Z,870
2015-10-27T09:19:01.562Z,868
2015-10-27T09:20:01.753Z,874
2015-10-27T09:21:01.725Z,872
2015-10-27T09:22:02.008Z,878
2015-10-27T09:23:02.245Z,877
2015-10-27T09:24:01.451Z,879
2015-10-27T09:25:01.673Z,878
2015-10-27T09:26:01.972Z,879
2015-10-27T09:27:02.194Z,877
2015-10-27T09:28:02.790Z,879
2015-10-27T09:29:01.622Z,880
2015-10-27T09:30:01.827Z,885
2015-10-27T09:31:02.251Z,883
2015-10-27T09:32:02.207Z,882
2015-10-27T09:33:02.163Z,887
2015-10-27T09:34:02.399Z,888
2015-10-27T09:35:01.512Z,885
2015-10-27T09:36:01.874Z,892
2015-10-27T09:37:01.971Z,890
2015-10-27T09:38:01.660Z,889
2015-10-27T09:39:01.569Z,891
2015-10-27T09:40:02.182Z,893
2015-10-27T09:41:01.419Z,890
2015-10-27T09:42:01.577Z,896
2015-10-27T09:43:01.752Z,897
2015-10-27T09:44:01.912Z,898
2015-10-27T09:45:02.071Z,897
2015-10-27T09:46:02.526Z,899
2015-10-27T09:47:01.528Z,897
2015-10-27T09:48:02.687Z,903
2015-10-27T09:49:01.612Z,898
2015-10-27T09:50:02.286Z,903
2015-10-27T09:51:01.945Z,906
2015-10-27T09:52:02.261Z,906
2015-10-27T09:53:02.139Z,905
2015-10-27T09:54:01.594Z,904
2015-10-27T09:55:01.691Z,910
2015-10-27T09:56:02.069Z,912
2015-10-27T09:57:02.103Z,26
2015-10-27T09:58:02.386Z,30
2015-10-27T09:59:01.451Z,28
2015-10-27T10:00:01.720Z,856
2015-10-27T10:01:01.425Z,854
2015-10-27T10:02:01.694Z,854
2015-10-27T10:03:01.977Z,855
2015-10-27T10:04:01.793Z,857
2015-10-27T10:05:01.952Z,862
2015-10-27T10:06:02.361Z,861
2015-10-27T10:07:02.410Z,862
2015-10-27T10:08:02.304Z,865
2015-10-27T10:09:01.479Z,866
2015-10-27T10:10:01.700Z,864
2015-10-27T10:11:02.187Z,869
2015-10-27T10:12:02.049Z,864
2015-10-27T10:13:02.192Z,867
2015-10-27T10:14:02.195Z,868
2015-10-27T10:15:02.212Z,871
2015-10-27T10:16:02.403Z,874
2015-10-27T10:17:01.578Z,870
2015-10-27T10:18:01.643Z,871
2015-10-27T10:19:01.817Z,875
2015-10-27T10:20:02.023Z,874
2015-10-27T10:21:02.276Z,877
2015-10-27T10:22:01.560Z,877
2015-10-27T10:23:02.328Z,880
2015-10-27T10:24:01.440Z,875
2015-10-27T10:25:01.600Z,876
2015-10-27T10:26:01.837Z,881
2015-10-27T10:27:01.823Z,885
2015-10-27T10:28:02.030Z,885
2015-10-27T10:29:02.236Z,882
2015-10-27T10:30:01.425Z,883
2015-10-27T10:31:02.052Z,885
2015-10-27T10:32:01.821Z,885
2015-10-27T10:33:01.933Z,891
2015-10-27T10:34:02.139Z,891
2015-10-27T10:35:02.329Z,890
2015-10-27T10:36:02.035Z,892
2015-10-27T10:37:01.522Z,889
2015-10-27T10:38:01.760Z,893
2015-10-27T10:39:02.262Z,895
2015-10-27T10:40:02.327Z,894
2015-10-27T10:41:01.893Z,894
2015-10-27T10:42:02.051Z,900
2015-10-27T10:43:02.460Z,896
2015-10-27T10:44:02.323Z,902
2015-10-27T10:45:01.497Z,899
2015-10-27T10:46:01.844Z,904
2015-10-27T10:47:02.627Z,901
2015-10-27T10:48:02.270Z,901
2015-10-27T10:49:01.445Z,901
2015-10-27T10:50:01.573Z,903
2015-10-27T10:51:01.951Z,903
2015-10-27T10:52:02.109Z,906
2015-10-27T10:53:02.268Z,909
2015-10-27T10:54:01.459Z,906
2015-10-27T10:55:02.103Z,907
2015-10-27T10:56:02.245Z,914
2015-10-27T10:57:02.310Z,27
2015-10-27T10:58:01.453Z,29
2015-10-27T10:59:01.628Z,26
2015-10-27T11:00:01.834Z,854
2015-10-27T11:01:02.305Z,858
2015-10-27T11:02:01.464Z,860
2015-10-27T11:03:01.764Z,859
2015-10-27T11:04:01.611Z,862
2015-10-27T11:05:01.722Z,863
2015-10-27T11:06:01.444Z,865
2015-10-27T11:07:02.166Z,862
2015-10-27T11:08:02.309Z,868
2015-10-27T11:09:01.515Z,866
2015-10-27T11:10:02.033Z,867
2015-10-27T11:11:02.380Z,867
2015-10-27T11:12:01.491Z,871
2015-10-27T11:13:01.666Z,871
2015-10-27T11:14:01.824Z,873
2015-10-27T11:15:02.046Z,870
2015-10-27T11:16:02.174Z,870
2015-10-27T11:17:02.332Z,871
2015-10-27T11:18:01.726Z,875
2015-10-27T11:19:02.510Z,878
2015-10-27T11:20:01.607Z,876
2015-10-27T11:21:02.015Z,876
2015-10-27T11:22:02.206Z,882
2015-10-27T11:23:02.396Z,879
2015-10-27T11:24:01.556Z,881
2015-10-27T11:25:01.776Z,884
2015-10-27T11:26:01.982Z,884
2015-10-27T11:27:02.017Z,881
2015-10-27T11:28:02.192Z,882
2015-10-27T11:29:02.350Z,885
2015-10-27T11:30:01.524Z,883
2015-10-27T11:31:01.699Z,887
2015-10-27T11:32:01.967Z,890
2015-10-27T11:33:02.016Z,889
2015-10-27T11:34:02.660Z,890
2015-10-27T11:35:01.772Z,892
2015-10-27T11:36:02.525Z,891
2015-10-27T11:37:02.324Z,891
2015-10-27T11:38:01.499Z,891
2015-10-27T11:39:01.736Z,898
2015-10-27T11:40:01.880Z,900
2015-10-27T11:41:02.241Z,897
2015-10-27T11:42:02.307Z,902
2015-10-27T11:43:01.466Z,898
2015-10-27T11:44:01.656Z,897
2015-10-27T11:45:02.127Z,902
2015-10-27T11:46:02.380Z,905
2015-10-27T11:47:02.367Z,907
2015-10-27T11:48:01.885Z,904
2015-10-27T11:49:01.809Z,906
2015-10-27T11:50:02.000Z,908
2015-10-27T11:51:02.409Z,909
2015-10-27T11:52:02.459Z,907
2015-10-27T11:53:02.320Z,913
2015-10-27T11:54:01.479Z,913
2015-10-27T11:55:01.639Z,914
2015-10-27T11:56:01.860Z,910
2015-10-27T11:57:01.800Z,30
2015-10-27T11:58:01.959Z,26
2015-10-27T11:59:02.150Z,25
2015-10-27T12:00:01.949Z,859
2015-10-27T12:01:01.873Z,862
2015-10-27T12:02:01.376Z,863
2015-10-27T12:03:01.550Z,858
2015-10-27T12:04:01.709Z,861
2015-10-27T12:05:01.885Z,864
2015-10-27T12:06:02.060Z,863
2015-10-27T12:07:02.204Z,867
2015-10-27T12:08:02.363Z,867
2015-10-27T12:09:01.506Z,869
2015-10-27T12:10:01.634Z,867
2015-10-27T12:11:01.871Z,872
2015-10-27T12:12:02.452Z,874
2015-10-27T12:13:03.564Z,871
2015-10-27T12:14:02.238Z,872
2015-10-27T12:15:01.412Z,874
2015-10-27T12:16:01.603Z,873
2015-10-27T12:17:02.262Z,875
2015-10-27T12:18:01.406Z,874
2015-10-27T12:19:01.721Z,879
2015-10-27T12:20:02.598Z,882
2015-10-27T12:21:02.257Z,879
2015-10-27T12:22:02.339Z,881
2015-10-27T12:23:01.982Z,882
2015-10-27T12:24:01.828Z,880
2015-10-27T12:25:01.972Z,881
2015-10-27T12:26:02.208Z,887
2015-10-27T12:27:02.352Z,886
2015-10-27T12:28:01.588Z,887
2015-10-27T12:29:01.575Z,887
2015-10-27T12:30:02.719Z,889
2015-10-27T12:31:02.191Z,890
2015-10-27T12:32:02.490Z,888
2015-10-27T12:33:01.555Z,890
2015-10-27T12:34:01.902Z,894
2015-10-27T12:35:02.108Z,896
2015-10-27T12:36:03.110Z,894
2015-10-27T12:37:02.019Z,899
2015-10-27T12:38:02.210Z,894
2015-10-27T12:39:02.478Z,896
2015-10-27T12:40:01.824Z,899
2015-10-27T12:41:02.171Z,901
2015-10-27T12:42:02.392Z,901
2015-10-27T12:43:01.582Z,902
2015-10-27T12:44:01.943Z,903
2015-10-27T12:45:02.071Z,901
2015-10-27T12:46:02.309Z,906
2015-10-27T12:47:01.484Z,904
2015-10-27T12:48:01.548Z,905
2015-10-27T12:49:01.692Z,910
2015-10-27T12:50:01.867Z,911
2015-10-27T12:51:02.010Z,907
2015-10-27T12:52:02.090Z,908
2015-10-27T12:53:02.250Z,910
2015-10-27T12:54:02.409Z,913
2015-10-27T12:55:01.584Z,913
2015-10-27T12:56:01.789Z,917
2015-10-27T12:57:01.839Z,30
2015-10-27T12:58:02.014Z,26
2015-10-27T12:59:02.156Z,26
2015-10-27T13:00:02.378Z,859
2015-10-27T13:01:01.646Z,864
2015-10-27T13:02:00.789Z,864
2015-10-27T13:03:01.949Z,863
2015-10-27T13:04:02.108Z,863
2015-10-27T13:05:02.298Z,863
2015-10-27T13:06:01.441Z,867
2015-10-27T13:07:01.897Z,871
2015-10-27T13:08:01.650Z,869
2015-10-27T13:09:01.449Z,866
2015-10-27T13:10:02.060Z,870
2015-10-27T13:11:02.235Z,874
2015-10-27T13:12:02.316Z,875
2015-10-27T13:13:01.476Z,872
2015-10-27T13:14:01.618Z,871
2015-10-27T13:15:01.856Z,875
2015-10-27T13:16:01.952Z,876
2015-10-27T13:17:01.971Z,876
2015-10-27T13:18:02.192Z,878
2015-10-27T13:19:02.320Z,881
2015-10-27T13:20:02.463Z,881
2015-10-27T13:21:00.732Z,878
2015-10-27T13:22:01.906Z,886
2015-10-27T13:23:02.049Z,886
2015-10-27T13:24:02.193Z,887
2015-10-27T13:25:02.336Z,888
2015-10-27T13:26:01.698Z,883
2015-10-27T13:27:01.809Z,887
2015-10-27T13:28:02.484Z,888
2015-10-27T13:29:01.425Z,887
2015-10-27T13:30:01.739Z,891
2015-10-27T13:31:02.649Z,895
2015-10-27T13:32:01.667Z,895
2015-10-27T13:33:01.764Z,893
2015-10-27T13:34:02.157Z,893
2015-10-27T13:35:02.128Z,894
2015-10-27T13:36:02.413Z,895
2015-10-27T13:37:01.650Z,894
2015-10-27T13:38:01.933Z,897
2015-10-27T13:39:02.077Z,903
2015-10-27T13:40:02.299Z,900
2015-10-27T13:41:01.942Z,904
2015-10-27T13:42:02.318Z,903
2015-10-27T13:43:02.321Z,906
2015-10-27T13:44:01.637Z,907
2015-10-27T13:45:01.749Z,907
2015-10-27T13:46:02.485Z,905
2015-10-27T13:47:01.770Z,910
2015-10-27T13:48:01.960Z,907
2015-10-27T13:49:02.119Z,907
2015-10-27T13:50:02.326Z,914
2015-10-27T13:51:01.453Z,914
2015-10-27T13:52:02.783Z,912
2015-10-27T13:53:01.723Z,912
2015-10-27T13:54:01.773Z,913
2015-10-27T13:55:01.917Z,916
2015-10-27T13:56:02.216Z,916
2015-10-27T13:57:02.624Z,24
2015-10-27T13:58:01.564Z,28
2015-10-27T13:59:01.833Z,24
2015-10-27T14:00:02.101Z,864
2015-10-27T14:01:02.119Z,863
2015-10-27T14:02:02.263Z,865
2015-10-27T14:03:01.500Z,867
2015-10-27T14:04:02.050Z,866
2015-10-27T14:05:02.364Z,868
2015-10-27T14:06:02.492Z,872
2015-10-27T14:07:02.073Z,872
2015-10-27T14:08:12.841Z,870
2015-10-27T14:09:02.765Z,871
2015-10-27T14:10:01.879Z,870
2015-10-27T14:11:02.131Z,876
2015-10-27T14:12:02.634Z,872
2015-10-27T14:13:02.480Z,878
2015-10-27T14:14:02.420Z,874
2015-10-27T14:15:01.578Z,880
2015-10-27T14:16:01.972Z,876
2015-10-27T14:17:01.943Z,877
2015-10-27T14:18:02.617Z,882
2015-10-27T14:19:02.402Z,885
2015-10-27T14:20:01.608Z,884
2015-10-27T14:21:02.267Z,887
2015-10-27T14:22:01.863Z,883
2015-10-27T14:23:02.194Z,889
2015-10-27T14:24:02.322Z,886
2015-10-27T14:25:01.481Z,890
2015-10-27T14:26:01.686Z,890
2015-10-27T14:27:01.908Z,891
2015-10-27T14:28:02.302Z,894
2015-10-27T14:29:01.475Z,892
2015-10-27T14:30:01.682Z,890
2015-10-27T14:31:01.778Z,895
2015-10-27T14:32:01.937Z,893
2015-10-27T14:33:02.143Z,898
2015-10-27T14:34:02.411Z,897
2015-10-27T14:35:01.570Z,896
2015-10-27T14:36:01.854Z,899
2015-10-27T14:37:02.060Z,900
2015-10-27T14:38:02.250Z,899
2015-10-27T14:39:01.488Z,900
2015-10-27T14:40:01.693Z,901
2015-10-27T14:41:01.946Z,902